sensor_id;sensor_type;location;lat;lon;timestamp;pressure;altitude;pressure_sealevel;temperature;humidity
22333;BME280;11334;36.986;-121.936;2023-07-13T00:01:30;101071.06;;;32.40;33.36
22333;BME280;11334;36.986;-121.936;2023-07-13T00:03:57;101070.13;;;32.21;33.72
22333;BME280;11334;36.986;-121.936;2023-07-13T00:06:23;101067.91;;;32.23;33.47
22333;BME280;11334;36.986;-121.936;2023-07-13T00:08:50;101070.34;;;32.30;33.36
22333;BME280;11334;36.986;-121.936;2023-07-13T00:11:17;101061.44;;;32.43;33.26
22333;BME280;11334;36.986;-121.936;2023-07-13T00:13:43;101055.50;;;32.31;33.57
22333;BME280;11334;36.986;-121.936;2023-07-13T00:16:11;101057.78;;;32.19;33.55
22333;BME280;11334;36.986;-121.936;2023-07-13T00:18:39;101063.00;;;32.20;34.06
22333;BME280;11334;36.986;-121.936;2023-07-13T00:21:06;101064.19;;;32.10;34.04
22333;BME280;11334;36.986;-121.936;2023-07-13T00:23:37;101063.31;;;32.14;34.42
22333;BME280;11334;36.986;-121.936;2023-07-13T00:26:06;101058.97;;;31.80;34.47
22333;BME280;11334;36.986;-121.936;2023-07-13T00:28:33;101060.53;;;31.91;35.08
22333;BME280;11334;36.986;-121.936;2023-07-13T00:31:00;101059.28;;;31.79;35.04
22333;BME280;11334;36.986;-121.936;2023-07-13T00:33:28;101060.72;;;32.32;34.05
22333;BME280;11334;36.986;-121.936;2023-07-13T00:35:55;101061.88;;;31.93;34.97
22333;BME280;11334;36.986;-121.936;2023-07-13T00:38:22;101066.69;;;32.06;34.59
22333;BME280;11334;36.986;-121.936;2023-07-13T00:40:49;101067.38;;;32.21;34.93
22333;BME280;11334;36.986;-121.936;2023-07-13T00:43:19;101065.03;;;32.10;34.84
22333;BME280;11334;36.986;-121.936;2023-07-13T00:48:20;101054.59;;;32.40;34.68
22333;BME280;11334;36.986;-121.936;2023-07-13T00:50:49;101063.00;;;32.20;34.34
22333;BME280;11334;36.986;-121.936;2023-07-13T00:53:18;101058.38;;;32.44;34.64
22333;BME280;11334;36.986;-121.936;2023-07-13T00:55:45;101061.38;;;32.47;34.26
22333;BME280;11334;36.986;-121.936;2023-07-13T00:58:13;101057.09;;;32.37;34.69
22333;BME280;11334;36.986;-121.936;2023-07-13T01:00:40;101064.88;;;32.53;34.62
22333;BME280;11334;36.986;-121.936;2023-07-13T01:03:06;101067.59;;;32.30;35.01
22333;BME280;11334;36.986;-121.936;2023-07-13T01:05:34;101061.66;;;32.46;34.68
22333;BME280;11334;36.986;-121.936;2023-07-13T01:08:02;101058.56;;;32.52;34.51
22333;BME280;11334;36.986;-121.936;2023-07-13T01:10:31;101061.06;;;32.49;34.47
22333;BME280;11334;36.986;-121.936;2023-07-13T01:13:09;101053.00;;;32.34;34.85
22333;BME280;11334;36.986;-121.936;2023-07-13T01:15:45;101057.34;;;32.40;34.66
22333;BME280;11334;36.986;-121.936;2023-07-13T01:18:17;101060.03;;;32.45;34.73
22333;BME280;11334;36.986;-121.936;2023-07-13T01:21:02;101063.53;;;32.27;35.31
22333;BME280;11334;36.986;-121.936;2023-07-13T01:23:30;101057.13;;;32.04;36.12
22333;BME280;11334;36.986;-121.936;2023-07-13T01:25:57;101054.66;;;31.69;36.53
22333;BME280;11334;36.986;-121.936;2023-07-13T01:28:25;101060.22;;;31.59;36.41
22333;BME280;11334;36.986;-121.936;2023-07-13T01:30:54;101051.09;;;31.36;37.08
22333;BME280;11334;36.986;-121.936;2023-07-13T01:33:20;101058.59;;;31.06;37.02
22333;BME280;11334;36.986;-121.936;2023-07-13T01:35:47;101056.69;;;31.11;36.65
22333;BME280;11334;36.986;-121.936;2023-07-13T01:38:16;101060.13;;;30.74;37.36
22333;BME280;11334;36.986;-121.936;2023-07-13T01:40:43;101062.34;;;30.72;37.73
22333;BME280;11334;36.986;-121.936;2023-07-13T01:43:10;101064.88;;;30.29;38.66
22333;BME280;11334;36.986;-121.936;2023-07-13T01:45:37;101066.00;;;30.08;38.92
22333;BME280;11334;36.986;-121.936;2023-07-13T01:48:03;101068.47;;;29.80;38.91
22333;BME280;11334;36.986;-121.936;2023-07-13T01:50:33;101067.56;;;29.40;39.96
22333;BME280;11334;36.986;-121.936;2023-07-13T01:52:59;101054.63;;;29.01;40.39
22333;BME280;11334;36.986;-121.936;2023-07-13T01:55:26;101058.66;;;28.79;41.08
22333;BME280;11334;36.986;-121.936;2023-07-13T01:57:52;101059.09;;;28.57;41.06
22333;BME280;11334;36.986;-121.936;2023-07-13T02:00:19;101064.16;;;28.43;41.82
22333;BME280;11334;36.986;-121.936;2023-07-13T02:02:45;101065.44;;;28.31;41.92
22333;BME280;11334;36.986;-121.936;2023-07-13T02:05:12;101074.97;;;28.28;41.93
22333;BME280;11334;36.986;-121.936;2023-07-13T02:07:39;101070.28;;;27.88;42.49
22333;BME280;11334;36.986;-121.936;2023-07-13T02:10:07;101077.59;;;27.83;42.88
22333;BME280;11334;36.986;-121.936;2023-07-13T02:12:34;101075.00;;;27.66;43.16
22333;BME280;11334;36.986;-121.936;2023-07-13T02:15:00;101076.66;;;27.20;44.13
22333;BME280;11334;36.986;-121.936;2023-07-13T02:17:27;101075.69;;;27.05;44.41
22333;BME280;11334;36.986;-121.936;2023-07-13T02:19:53;101077.06;;;27.07;44.67
22333;BME280;11334;36.986;-121.936;2023-07-13T02:22:20;101071.31;;;27.04;44.87
22333;BME280;11334;36.986;-121.936;2023-07-13T02:24:47;101083.44;;;26.92;45.17
22333;BME280;11334;36.986;-121.936;2023-07-13T02:27:13;101079.19;;;26.63;45.64
22333;BME280;11334;36.986;-121.936;2023-07-13T02:29:39;101074.81;;;26.41;46.01
22333;BME280;11334;36.986;-121.936;2023-07-13T02:32:06;101090.25;;;26.03;46.91
22333;BME280;11334;36.986;-121.936;2023-07-13T02:34:32;101077.72;;;25.70;47.81
22333;BME280;11334;36.986;-121.936;2023-07-13T02:36:58;101087.81;;;25.30;48.90
22333;BME280;11334;36.986;-121.936;2023-07-13T02:39:25;101081.88;;;24.89;50.26
22333;BME280;11334;36.986;-121.936;2023-07-13T02:41:51;101083.81;;;24.43;52.03
22333;BME280;11334;36.986;-121.936;2023-07-13T02:44:17;101089.91;;;24.16;53.38
22333;BME280;11334;36.986;-121.936;2023-07-13T02:46:44;101105.69;;;23.97;54.00
22333;BME280;11334;36.986;-121.936;2023-07-13T02:49:10;101100.00;;;23.76;54.85
22333;BME280;11334;36.986;-121.936;2023-07-13T02:51:36;101091.09;;;23.46;55.80
22333;BME280;11334;36.986;-121.936;2023-07-13T02:54:04;101094.69;;;23.29;56.67
22333;BME280;11334;36.986;-121.936;2023-07-13T02:56:31;101103.88;;;23.10;57.16
22333;BME280;11334;36.986;-121.936;2023-07-13T02:58:58;101100.44;;;22.85;57.81
22333;BME280;11334;36.986;-121.936;2023-07-13T03:01:24;101100.97;;;22.76;58.75
22333;BME280;11334;36.986;-121.936;2023-07-13T03:03:52;101105.63;;;22.51;59.53
22333;BME280;11334;36.986;-121.936;2023-07-13T03:06:19;101107.41;;;22.40;60.19
22333;BME280;11334;36.986;-121.936;2023-07-13T03:08:47;101110.94;;;22.40;60.31
22333;BME280;11334;36.986;-121.936;2023-07-13T03:11:17;101114.13;;;22.13;61.53
22333;BME280;11334;36.986;-121.936;2023-07-13T03:13:44;101120.41;;;22.01;61.92
22333;BME280;11334;36.986;-121.936;2023-07-13T03:16:11;101123.59;;;21.91;62.35
22333;BME280;11334;36.986;-121.936;2023-07-13T03:18:38;101118.16;;;21.74;63.21
22333;BME280;11334;36.986;-121.936;2023-07-13T03:21:05;101120.75;;;21.62;63.49
22333;BME280;11334;36.986;-121.936;2023-07-13T03:23:31;101118.69;;;21.58;63.75
22333;BME280;11334;36.986;-121.936;2023-07-13T03:26:19;101120.31;;;21.35;64.67
22333;BME280;11334;36.986;-121.936;2023-07-13T03:28:46;101119.94;;;21.19;65.36
22333;BME280;11334;36.986;-121.936;2023-07-13T03:31:15;101109.06;;;20.94;66.18
22333;BME280;11334;36.986;-121.936;2023-07-13T03:33:43;101120.03;;;20.99;66.21
22333;BME280;11334;36.986;-121.936;2023-07-13T03:36:16;101122.59;;;20.88;66.52
22333;BME280;11334;36.986;-121.936;2023-07-13T03:38:49;101127.34;;;20.86;67.11
22333;BME280;11334;36.986;-121.936;2023-07-13T03:41:16;101130.94;;;20.74;67.61
22333;BME280;11334;36.986;-121.936;2023-07-13T03:43:43;101128.47;;;20.66;67.72
22333;BME280;11334;36.986;-121.936;2023-07-13T03:46:10;101124.94;;;20.53;68.71
22333;BME280;11334;36.986;-121.936;2023-07-13T03:48:36;101120.63;;;20.39;68.99
22333;BME280;11334;36.986;-121.936;2023-07-13T03:51:02;101121.84;;;20.43;68.91
22333;BME280;11334;36.986;-121.936;2023-07-13T03:53:29;101134.72;;;20.28;70.00
22333;BME280;11334;36.986;-121.936;2023-07-13T03:55:55;101134.75;;;20.22;70.15
22333;BME280;11334;36.986;-121.936;2023-07-13T03:58:39;101138.28;;;20.09;70.72
22333;BME280;11334;36.986;-121.936;2023-07-13T04:01:07;101138.69;;;20.06;71.04
22333;BME280;11334;36.986;-121.936;2023-07-13T04:03:35;101147.56;;;20.00;71.38
22333;BME280;11334;36.986;-121.936;2023-07-13T04:06:04;101145.31;;;19.97;71.67
22333;BME280;11334;36.986;-121.936;2023-07-13T04:08:33;101156.06;;;19.91;71.89
22333;BME280;11334;36.986;-121.936;2023-07-13T04:11:00;101151.72;;;19.77;72.46
22333;BME280;11334;36.986;-121.936;2023-07-13T04:13:27;101151.03;;;19.69;73.25
22333;BME280;11334;36.986;-121.936;2023-07-13T04:15:53;101152.69;;;19.63;73.44
22333;BME280;11334;36.986;-121.936;2023-07-13T04:18:20;101155.19;;;19.65;73.15
22333;BME280;11334;36.986;-121.936;2023-07-13T04:20:48;101153.28;;;19.53;74.14
22333;BME280;11334;36.986;-121.936;2023-07-13T04:23:16;101156.19;;;19.45;74.51
22333;BME280;11334;36.986;-121.936;2023-07-13T04:25:46;101159.28;;;19.48;74.48
22333;BME280;11334;36.986;-121.936;2023-07-13T04:28:15;101162.38;;;19.45;74.67
22333;BME280;11334;36.986;-121.936;2023-07-13T04:30:43;101173.31;;;19.37;74.64
22333;BME280;11334;36.986;-121.936;2023-07-13T04:33:10;101180.50;;;19.24;75.29
22333;BME280;11334;36.986;-121.936;2023-07-13T04:35:36;101180.25;;;19.13;76.22
22333;BME280;11334;36.986;-121.936;2023-07-13T04:38:03;101178.84;;;18.90;77.41
22333;BME280;11334;36.986;-121.936;2023-07-13T04:40:29;101186.53;;;18.93;77.59
22333;BME280;11334;36.986;-121.936;2023-07-13T04:42:55;101189.41;;;18.91;77.86
22333;BME280;11334;36.986;-121.936;2023-07-13T04:45:22;101182.94;;;18.73;78.53
22333;BME280;11334;36.986;-121.936;2023-07-13T04:47:50;101195.72;;;18.71;78.93
22333;BME280;11334;36.986;-121.936;2023-07-13T04:50:16;101201.28;;;18.69;79.18
22333;BME280;11334;36.986;-121.936;2023-07-13T04:52:46;101202.78;;;18.78;78.51
22333;BME280;11334;36.986;-121.936;2023-07-13T04:55:13;101198.06;;;18.80;78.49
22333;BME280;11334;36.986;-121.936;2023-07-13T04:57:39;101208.16;;;18.78;79.18
22333;BME280;11334;36.986;-121.936;2023-07-13T05:00:06;101210.16;;;18.70;80.02
22333;BME280;11334;36.986;-121.936;2023-07-13T05:02:33;101205.50;;;18.51;80.31
22333;BME280;11334;36.986;-121.936;2023-07-13T05:05:01;101205.72;;;18.56;80.26
22333;BME280;11334;36.986;-121.936;2023-07-13T05:07:29;101220.53;;;18.46;81.14
22333;BME280;11334;36.986;-121.936;2023-07-13T05:09:55;101219.66;;;18.39;81.28
22333;BME280;11334;36.986;-121.936;2023-07-13T05:12:21;101223.47;;;18.51;80.88
22333;BME280;11334;36.986;-121.936;2023-07-13T05:14:48;101231.94;;;18.54;80.67
22333;BME280;11334;36.986;-121.936;2023-07-13T05:17:15;101233.72;;;18.41;81.23
22333;BME280;11334;36.986;-121.936;2023-07-13T05:19:41;101229.66;;;18.31;81.95
22333;BME280;11334;36.986;-121.936;2023-07-13T05:22:08;101230.97;;;18.35;81.71
22333;BME280;11334;36.986;-121.936;2023-07-13T05:24:34;101229.31;;;18.34;81.82
22333;BME280;11334;36.986;-121.936;2023-07-13T05:27:01;101225.53;;;18.28;81.39
22333;BME280;11334;36.986;-121.936;2023-07-13T05:29:27;101231.75;;;18.29;80.55
22333;BME280;11334;36.986;-121.936;2023-07-13T05:31:53;101231.09;;;18.27;80.08
22333;BME280;11334;36.986;-121.936;2023-07-13T05:34:19;101235.41;;;18.21;80.15
22333;BME280;11334;36.986;-121.936;2023-07-13T05:36:46;101228.56;;;18.19;79.47
22333;BME280;11334;36.986;-121.936;2023-07-13T05:39:12;101229.63;;;18.24;79.36
22333;BME280;11334;36.986;-121.936;2023-07-13T05:41:39;101227.22;;;18.08;80.16
22333;BME280;11334;36.986;-121.936;2023-07-13T05:44:06;101229.09;;;17.94;80.75
22333;BME280;11334;36.986;-121.936;2023-07-13T05:46:33;101232.00;;;17.92;80.48
22333;BME280;11334;36.986;-121.936;2023-07-13T05:48:59;101227.84;;;17.90;80.90
22333;BME280;11334;36.986;-121.936;2023-07-13T05:51:26;101234.59;;;17.86;80.48
22333;BME280;11334;36.986;-121.936;2023-07-13T05:53:52;101233.00;;;17.71;81.13
22333;BME280;11334;36.986;-121.936;2023-07-13T05:56:18;101225.97;;;17.70;80.61
22333;BME280;11334;36.986;-121.936;2023-07-13T05:58:45;101231.25;;;17.63;81.44
22333;BME280;11334;36.986;-121.936;2023-07-13T06:01:13;101229.63;;;17.62;81.37
22333;BME280;11334;36.986;-121.936;2023-07-13T06:03:40;101228.53;;;17.57;82.11
22333;BME280;11334;36.986;-121.936;2023-07-13T06:06:08;101231.25;;;17.63;81.94
22333;BME280;11334;36.986;-121.936;2023-07-13T06:08:35;101226.84;;;17.56;81.56
22333;BME280;11334;36.986;-121.936;2023-07-13T06:11:16;101226.59;;;17.51;81.89
22333;BME280;11334;36.986;-121.936;2023-07-13T06:13:42;101221.69;;;17.54;81.71
22333;BME280;11334;36.986;-121.936;2023-07-13T06:16:08;101231.50;;;17.47;81.41
22333;BME280;11334;36.986;-121.936;2023-07-13T06:18:36;101222.56;;;17.40;82.21
22333;BME280;11334;36.986;-121.936;2023-07-13T06:21:14;101219.06;;;17.40;82.45
22333;BME280;11334;36.986;-121.936;2023-07-13T06:23:43;101204.84;;;17.40;82.79
22333;BME280;11334;36.986;-121.936;2023-07-13T06:26:10;101227.34;;;17.45;83.19
22333;BME280;11334;36.986;-121.936;2023-07-13T06:28:37;101232.19;;;17.35;83.20
22333;BME280;11334;36.986;-121.936;2023-07-13T06:31:10;101225.00;;;17.21;83.72
22333;BME280;11334;36.986;-121.936;2023-07-13T06:33:36;101229.34;;;17.22;83.07
22333;BME280;11334;36.986;-121.936;2023-07-13T06:36:04;101231.16;;;17.22;82.51
22333;BME280;11334;36.986;-121.936;2023-07-13T06:38:31;101231.16;;;17.22;82.66
22333;BME280;11334;36.986;-121.936;2023-07-13T06:40:58;101235.16;;;17.26;82.49
22333;BME280;11334;36.986;-121.936;2023-07-13T06:43:24;101232.66;;;17.24;82.36
22333;BME280;11334;36.986;-121.936;2023-07-13T06:45:53;101234.59;;;17.16;82.66
22333;BME280;11334;36.986;-121.936;2023-07-13T06:48:20;101228.41;;;17.01;82.65
22333;BME280;11334;36.986;-121.936;2023-07-13T06:50:48;101233.09;;;16.99;82.81
22333;BME280;11334;36.986;-121.936;2023-07-13T06:53:17;101229.97;;;16.96;82.42
22333;BME280;11334;36.986;-121.936;2023-07-13T06:55:44;101224.72;;;16.88;83.02
22333;BME280;11334;36.986;-121.936;2023-07-13T06:58:12;101230.44;;;16.71;83.97
22333;BME280;11334;36.986;-121.936;2023-07-13T07:00:38;101222.69;;;16.76;83.86
22333;BME280;11334;36.986;-121.936;2023-07-13T07:03:05;101226.66;;;16.79;83.42
22333;BME280;11334;36.986;-121.936;2023-07-13T07:05:32;101220.94;;;16.68;83.50
22333;BME280;11334;36.986;-121.936;2023-07-13T07:07:58;101222.13;;;16.66;83.38
22333;BME280;11334;36.986;-121.936;2023-07-13T07:10:25;101224.16;;;16.64;83.52
22333;BME280;11334;36.986;-121.936;2023-07-13T07:12:52;101224.06;;;16.57;83.53
22333;BME280;11334;36.986;-121.936;2023-07-13T07:15:18;101227.25;;;16.53;84.11
22333;BME280;11334;36.986;-121.936;2023-07-13T07:17:44;101222.41;;;16.56;83.81
22333;BME280;11334;36.986;-121.936;2023-07-13T07:20:11;101223.75;;;16.52;84.03
22333;BME280;11334;36.986;-121.936;2023-07-13T07:22:37;101221.00;;;16.46;83.74
22333;BME280;11334;36.986;-121.936;2023-07-13T07:25:04;101210.28;;;16.32;84.08
22333;BME280;11334;36.986;-121.936;2023-07-13T07:27:32;101219.53;;;16.44;84.08
22333;BME280;11334;36.986;-121.936;2023-07-13T07:29:59;101218.44;;;16.38;84.46
22333;BME280;11334;36.986;-121.936;2023-07-13T07:32:25;101223.78;;;16.38;84.42
22333;BME280;11334;36.986;-121.936;2023-07-13T07:34:51;101215.81;;;16.30;84.55
22333;BME280;11334;36.986;-121.936;2023-07-13T07:37:18;101219.13;;;16.32;84.73
22333;BME280;11334;36.986;-121.936;2023-07-13T07:39:44;101216.16;;;16.27;84.92
22333;BME280;11334;36.986;-121.936;2023-07-13T07:42:10;101216.28;;;16.12;85.37
22333;BME280;11334;36.986;-121.936;2023-07-13T07:44:39;101210.94;;;16.12;84.79
22333;BME280;11334;36.986;-121.936;2023-07-13T07:47:06;101220.56;;;16.20;85.00
22333;BME280;11334;36.986;-121.936;2023-07-13T07:49:32;101213.13;;;16.08;85.35
22333;BME280;11334;36.986;-121.936;2023-07-13T07:51:58;101216.47;;;16.10;85.12
22333;BME280;11334;36.986;-121.936;2023-07-13T07:54:25;101209.41;;;16.17;84.79
22333;BME280;11334;36.986;-121.936;2023-07-13T07:56:51;101219.47;;;16.15;85.07
22333;BME280;11334;36.986;-121.936;2023-07-13T07:59:18;101208.59;;;16.16;85.00
22333;BME280;11334;36.986;-121.936;2023-07-13T08:01:44;101212.66;;;16.05;85.60
22333;BME280;11334;36.986;-121.936;2023-07-13T08:04:12;101213.03;;;16.02;85.25
22333;BME280;11334;36.986;-121.936;2023-07-13T08:06:38;101213.44;;;15.91;85.27
22333;BME280;11334;36.986;-121.936;2023-07-13T08:09:04;101207.09;;;15.92;85.41
22333;BME280;11334;36.986;-121.936;2023-07-13T08:11:31;101204.50;;;15.84;85.28
22333;BME280;11334;36.986;-121.936;2023-07-13T08:13:57;101201.94;;;15.90;85.48
22333;BME280;11334;36.986;-121.936;2023-07-13T08:16:24;101207.19;;;15.84;85.51
22333;BME280;11334;36.986;-121.936;2023-07-13T08:18:51;101204.50;;;15.84;85.30
22333;BME280;11334;36.986;-121.936;2023-07-13T08:21:17;101206.63;;;15.88;85.49
22333;BME280;11334;36.986;-121.936;2023-07-13T08:23:45;101197.41;;;15.91;85.30
22333;BME280;11334;36.986;-121.936;2023-07-13T08:26:12;101203.25;;;15.94;84.69
22333;BME280;11334;36.986;-121.936;2023-07-13T08:28:38;101208.66;;;15.86;85.37
22333;BME280;11334;36.986;-121.936;2023-07-13T08:31:05;101204.31;;;15.85;85.52
22333;BME280;11334;36.986;-121.936;2023-07-13T08:33:34;101205.19;;;15.78;85.81
22333;BME280;11334;36.986;-121.936;2023-07-13T08:36:01;101206.69;;;15.80;85.87
22333;BME280;11334;36.986;-121.936;2023-07-13T08:38:27;101211.56;;;15.77;86.10
22333;BME280;11334;36.986;-121.936;2023-07-13T08:40:55;101200.16;;;15.83;85.93
22333;BME280;11334;36.986;-121.936;2023-07-13T08:43:26;101210.47;;;15.86;86.14
22333;BME280;11334;36.986;-121.936;2023-07-13T08:46:01;101211.22;;;15.80;86.08
22333;BME280;11334;36.986;-121.936;2023-07-13T08:48:32;101206.69;;;15.80;86.47
22333;BME280;11334;36.986;-121.936;2023-07-13T08:51:26;101204.09;;;15.73;86.41
22333;BME280;11334;36.986;-121.936;2023-07-13T08:54:04;101209.06;;;15.76;85.86
22333;BME280;11334;36.986;-121.936;2023-07-13T08:56:32;101208.41;;;15.74;86.62
22333;BME280;11334;36.986;-121.936;2023-07-13T08:59:15;101203.63;;;15.69;87.21
22333;BME280;11334;36.986;-121.936;2023-07-13T09:01:47;101205.13;;;15.64;87.77
22333;BME280;11334;36.986;-121.936;2023-07-13T09:04:34;101197.31;;;15.62;88.13
22333;BME280;11334;36.986;-121.936;2023-07-13T09:10:16;101199.31;;;15.60;89.03
22333;BME280;11334;36.986;-121.936;2023-07-13T09:13:07;101208.09;;;15.69;90.01
22333;BME280;11334;36.986;-121.936;2023-07-13T09:15:42;101203.63;;;15.69;90.82
22333;BME280;11334;36.986;-121.936;2023-07-13T09:21:08;101204.31;;;15.63;91.85
22333;BME280;11334;36.986;-121.936;2023-07-13T09:23:36;101206.00;;;15.64;91.79
22333;BME280;11334;36.986;-121.936;2023-07-13T09:26:12;101202.81;;;15.61;91.44
22333;BME280;11334;36.986;-121.936;2023-07-13T09:28:48;101203.84;;;15.60;90.25
22333;BME280;11334;36.986;-121.936;2023-07-13T09:31:34;101203.03;;;15.51;89.22
22333;BME280;11334;36.986;-121.936;2023-07-13T09:34:08;101198.34;;;15.31;88.30
22333;BME280;11334;36.986;-121.936;2023-07-13T09:36:35;101216.03;;;15.32;88.39
22333;BME280;11334;36.986;-121.936;2023-07-13T09:44:09;101208.03;;;15.32;87.90
22333;BME280;11334;36.986;-121.936;2023-07-13T09:46:35;101204.50;;;15.32;87.94
22333;BME280;11334;36.986;-121.936;2023-07-13T09:49:02;101213.19;;;15.34;87.82
22333;BME280;11334;36.986;-121.936;2023-07-13T09:51:28;101208.34;;;15.37;87.10
22333;BME280;11334;36.986;-121.936;2023-07-13T09:53:54;101201.69;;;15.33;87.20
22333;BME280;11334;36.986;-121.936;2023-07-13T09:56:27;101206.66;;;15.36;86.95
22333;BME280;11334;36.986;-121.936;2023-07-13T09:58:55;101211.53;;;15.33;86.55
22333;BME280;11334;36.986;-121.936;2023-07-13T10:01:37;101206.53;;;15.30;86.54
22333;BME280;11334;36.986;-121.936;2023-07-13T10:04:14;101210.50;;;15.34;86.65
22333;BME280;11334;36.986;-121.936;2023-07-13T10:06:45;101202.56;;;15.26;86.99
22333;BME280;11334;36.986;-121.936;2023-07-13T10:09:21;101202.56;;;15.26;87.95
22333;BME280;11334;36.986;-121.936;2023-07-13T10:11:50;101203.25;;;15.20;88.63
22333;BME280;11334;36.986;-121.936;2023-07-13T10:14:21;101198.56;;;15.22;88.97
22333;BME280;11334;36.986;-121.936;2023-07-13T10:16:58;101202.72;;;15.24;89.39
22333;BME280;11334;36.986;-121.936;2023-07-13T10:19:31;101202.56;;;15.26;90.77
22333;BME280;11334;36.986;-121.936;2023-07-13T10:25:02;101192.03;;;15.24;91.71
22333;BME280;11334;36.986;-121.936;2023-07-13T10:27:35;101204.09;;;15.20;92.96
22333;BME280;11334;36.986;-121.936;2023-07-13T10:30:24;101200.69;;;15.26;93.42
22333;BME280;11334;36.986;-121.936;2023-07-13T10:32:57;101202.03;;;15.30;94.11
22333;BME280;11334;36.986;-121.936;2023-07-13T10:35:24;101191.16;;;15.32;94.52
22333;BME280;11334;36.986;-121.936;2023-07-13T10:38:01;101193.81;;;15.32;95.11
22333;BME280;11334;36.986;-121.936;2023-07-13T10:40:36;101187.59;;;15.39;95.50
22333;BME280;11334;36.986;-121.936;2023-07-13T10:43:09;101191.25;;;15.46;95.48
22333;BME280;11334;36.986;-121.936;2023-07-13T10:45:40;101185.53;;;15.49;95.98
22333;BME280;11334;36.986;-121.936;2023-07-13T10:48:09;101190.88;;;15.49;96.57
22333;BME280;11334;36.986;-121.936;2023-07-13T10:50:41;101196.41;;;15.48;96.93
22333;BME280;11334;36.986;-121.936;2023-07-13T10:53:31;101193.84;;;15.54;96.95
22333;BME280;11334;36.986;-121.936;2023-07-13T10:58:40;101205.72;;;15.51;97.40
22333;BME280;11334;36.986;-121.936;2023-07-13T11:01:16;101198.88;;;15.49;97.53
22333;BME280;11334;36.986;-121.936;2023-07-13T11:03:54;101187.38;;;15.48;97.46
22333;BME280;11334;36.986;-121.936;2023-07-13T11:06:39;101199.75;;;15.49;97.64
22333;BME280;11334;36.986;-121.936;2023-07-13T11:09:40;101209.41;;;15.50;97.29
22333;BME280;11334;36.986;-121.936;2023-07-13T11:12:09;101200.06;;;15.47;97.03
22333;BME280;11334;36.986;-121.936;2023-07-13T11:15:03;101203.47;;;15.41;96.03
22333;BME280;11334;36.986;-121.936;2023-07-13T11:22:48;101213.69;;;15.37;94.48
22333;BME280;11334;36.986;-121.936;2023-07-13T11:28:15;101209.03;;;15.31;93.66
22333;BME280;11334;36.986;-121.936;2023-07-13T11:36:07;101209.84;;;15.32;92.80
22333;BME280;11334;36.986;-121.936;2023-07-13T11:41:26;101216.91;;;15.25;92.83
22333;BME280;11334;36.986;-121.936;2023-07-13T11:44:11;101210.25;;;15.21;92.66
22333;BME280;11334;36.986;-121.936;2023-07-13T11:46:37;101211.91;;;15.22;91.94
22333;BME280;11334;36.986;-121.936;2023-07-13T11:49:07;101202.09;;;15.07;92.17
22333;BME280;11334;36.986;-121.936;2023-07-13T11:51:35;101217.25;;;15.22;92.03
22333;BME280;11334;36.986;-121.936;2023-07-13T11:54:13;101227.91;;;15.22;92.41
22333;BME280;11334;36.986;-121.936;2023-07-13T11:56:43;101230.25;;;15.25;92.18
22333;BME280;11334;36.986;-121.936;2023-07-13T11:59:12;101233.91;;;15.24;92.00
22333;BME280;11334;36.986;-121.936;2023-07-13T12:01:44;101226.63;;;15.18;91.92
22333;BME280;11334;36.986;-121.936;2023-07-13T12:06:47;101232.00;;;15.10;91.68
22333;BME280;11334;36.986;-121.936;2023-07-13T12:09:18;101241.97;;;15.08;92.15
22333;BME280;11334;36.986;-121.936;2023-07-13T12:11:49;101240.13;;;15.09;91.84
22333;BME280;11334;36.986;-121.936;2023-07-13T12:14:15;101248.34;;;15.07;92.09
22333;BME280;11334;36.986;-121.936;2023-07-13T12:16:43;101236.72;;;14.92;93.27
22333;BME280;11334;36.986;-121.936;2023-07-13T12:19:18;101239.00;;;15.03;93.55
22333;BME280;11334;36.986;-121.936;2023-07-13T12:21:46;101236.03;;;14.98;94.00
22333;BME280;11334;36.986;-121.936;2023-07-13T12:24:18;101241.50;;;15.05;94.86
22333;BME280;11334;36.986;-121.936;2023-07-13T12:26:46;101244.34;;;15.03;94.82
22333;BME280;11334;36.986;-121.936;2023-07-13T12:29:17;101252.00;;;15.06;95.00
22333;BME280;11334;36.986;-121.936;2023-07-13T12:31:46;101238.69;;;14.98;95.69
22333;BME280;11334;36.986;-121.936;2023-07-13T12:34:18;101251.16;;;15.06;95.98
22333;BME280;11334;36.986;-121.936;2023-07-13T12:36:58;101261.50;;;15.09;95.83
22333;BME280;11334;36.986;-121.936;2023-07-13T12:39:36;101252.00;;;15.14;96.27
22333;BME280;11334;36.986;-121.936;2023-07-13T12:42:27;101254.84;;;15.13;96.51
22333;BME280;11334;36.986;-121.936;2023-07-13T12:45:27;101251.81;;;15.16;96.48
22333;BME280;11334;36.986;-121.936;2023-07-13T12:48:19;101261.69;;;15.07;96.90
22333;BME280;11334;36.986;-121.936;2023-07-13T12:50:48;101258.34;;;15.05;97.44
22333;BME280;11334;36.986;-121.936;2023-07-13T12:53:21;101263.72;;;14.97;99.16
22333;BME280;11334;36.986;-121.936;2023-07-13T12:55:54;101259.03;;;14.99;100.00
22333;BME280;11334;36.986;-121.936;2023-07-13T12:58:39;101264.84;;;15.11;100.00
22333;BME280;11334;36.986;-121.936;2023-07-13T13:01:14;101265.03;;;15.09;99.97
22333;BME280;11334;36.986;-121.936;2023-07-13T13:03:49;101275.84;;;15.16;100.00
22333;BME280;11334;36.986;-121.936;2023-07-13T13:08:50;101268.97;;;15.21;100.00
22333;BME280;11334;36.986;-121.936;2023-07-13T13:11:18;101273.31;;;15.22;100.00
22333;BME280;11334;36.986;-121.936;2023-07-13T13:13:46;101277.31;;;15.26;100.00